createdAt,value
2023-05-17T00:02:19.442Z,12.56
2023-05-17T00:04:46.617Z,12.04
2023-05-17T00:07:13.653Z,12.09
2023-05-17T00:09:40.672Z,12.62
2023-05-17T00:12:07.815Z,12.34
2023-05-17T00:14:34.925Z,12.52
2023-05-17T00:17:01.961Z,11.49
2023-05-17T00:19:29.013Z,11.90
2023-05-17T00:21:56.145Z,12.11
2023-05-17T00:24:23.874Z,11.74
2023-05-17T00:26:50.919Z,11.81
2023-05-17T00:29:18.065Z,10.96
2023-05-17T00:31:45.136Z,11.53
2023-05-17T00:34:12.118Z,11.88
2023-05-17T00:36:39.188Z,11.84
2023-05-17T00:39:06.177Z,11.20
2023-05-17T00:41:33.215Z,10.73
2023-05-17T00:44:00.363Z,10.93
2023-05-17T00:46:27.778Z,10.31
2023-05-17T00:48:55.046Z,10.41
2023-05-17T00:51:22.263Z,10.82
2023-05-17T00:53:49.301Z,10.31
2023-05-17T00:56:16.518Z,10.69
2023-05-17T00:58:43.597Z,11.47
2023-05-17T01:01:10.853Z,10.49
2023-05-17T01:03:38.294Z,11.57
2023-05-17T01:06:06.203Z,11.94
2023-05-17T01:08:35.525Z,11.22
2023-05-17T01:11:25.454Z,11.73
2023-05-17T01:13:55.187Z,11.71
2023-05-17T01:16:31.477Z,11.02
2023-05-17T01:19:03.764Z,10.65
2023-05-17T01:22:01.833Z,10.95
2023-05-17T01:24:33.585Z,11.22
2023-05-17T01:27:02.227Z,11.32
2023-05-17T01:29:29.365Z,11.26
2023-05-17T01:31:56.945Z,11.12
2023-05-17T01:34:26.027Z,10.71
2023-05-17T01:36:53.110Z,10.67
2023-05-17T01:39:20.326Z,11.00
2023-05-17T01:41:51.942Z,10.53
2023-05-17T01:44:25.689Z,10.16
2023-05-17T01:46:56.053Z,9.99
2023-05-17T01:49:31.678Z,9.62
2023-05-17T01:52:04.233Z,10.02
2023-05-17T01:54:38.345Z,9.92
2023-05-17T01:57:07.770Z,9.70
2023-05-17T01:59:35.179Z,10.07
2023-05-17T02:02:08.990Z,10.60
2023-05-17T02:04:36.777Z,10.32
2023-05-17T02:07:04.016Z,10.04
2023-05-17T02:09:31.448Z,9.34
2023-05-17T02:11:58.555Z,9.23
2023-05-17T02:14:25.594Z,8.92
2023-05-17T02:16:53.032Z,8.85
2023-05-17T02:19:20.165Z,9.03
2023-05-17T02:21:47.179Z,9.30
2023-05-17T02:24:14.265Z,9.59
2023-05-17T02:26:43.349Z,9.97
2023-05-17T02:29:11.324Z,9.11
2023-05-17T02:31:38.341Z,9.75
2023-05-17T02:34:05.469Z,9.67
2023-05-17T02:36:32.735Z,9.20
2023-05-17T02:38:59.836Z,10.27
2023-05-17T02:41:27.142Z,10.14
2023-05-17T02:43:54.241Z,10.64
2023-05-17T02:46:21.734Z,10.40
2023-05-17T02:48:48.834Z,9.65
2023-05-17T02:51:15.861Z,10.13
2023-05-17T02:53:43.108Z,10.75
2023-05-17T02:56:10.156Z,10.05
2023-05-17T02:58:37.330Z,10.40
2023-05-17T03:01:04.565Z,9.46
2023-05-17T03:03:31.888Z,9.86
2023-05-17T03:06:01.940Z,8.75
2023-05-17T03:08:29.604Z,8.88
2023-05-17T03:10:57.553Z,8.39
2023-05-17T03:13:24.789Z,9.55
2023-05-17T03:15:51.861Z,8.65
2023-05-17T03:18:18.992Z,8.34
2023-05-17T03:20:46.163Z,8.55
2023-05-17T03:23:13.573Z,9.00
2023-05-17T03:25:50.469Z,9.31
2023-05-17T03:28:17.790Z,9.56
2023-05-17T03:30:45.098Z,9.34
2023-05-17T03:33:13.227Z,9.31
2023-05-17T03:35:40.525Z,9.57
2023-05-17T03:38:07.760Z,8.95
2023-05-17T03:40:34.860Z,8.73
2023-05-17T03:43:02.159Z,8.88
2023-05-17T03:45:30.180Z,9.59
2023-05-17T03:47:57.373Z,9.55
2023-05-17T03:50:26.007Z,8.90
2023-05-17T03:52:53.034Z,8.85
2023-05-17T03:55:20.265Z,8.63
2023-05-17T03:57:47.624Z,9.13
2023-05-17T04:00:21.290Z,8.68
2023-05-17T04:02:48.941Z,9.56
2023-05-17T04:05:17.834Z,9.51
2023-05-17T04:07:46.581Z,9.56
2023-05-17T04:10:14.023Z,9.29
2023-05-17T04:12:41.582Z,8.63
2023-05-17T04:15:09.511Z,8.42
2023-05-17T04:17:38.370Z,8.49
2023-05-17T04:20:06.766Z,8.80
2023-05-17T04:22:35.153Z,8.38
2023-05-17T04:25:02.240Z,8.25
2023-05-17T04:27:29.743Z,8.25
2023-05-17T04:29:56.904Z,8.44
2023-05-17T04:32:24.292Z,8.51
2023-05-17T04:34:52.344Z,7.98
2023-05-17T04:37:20.195Z,8.21
2023-05-17T04:39:54.390Z,8.96
2023-05-17T04:42:21.599Z,8.99
2023-05-17T04:44:53.727Z,8.68
2023-05-17T04:47:20.791Z,9.91
2023-05-17T04:49:48.856Z,9.44
2023-05-17T04:52:15.958Z,9.28
2023-05-17T04:54:43.523Z,10.04
2023-05-17T04:57:11.429Z,10.07
2023-05-17T04:59:59.745Z,9.20
2023-05-17T05:02:27.545Z,8.91
2023-05-17T05:04:54.729Z,8.95
2023-05-17T05:07:21.983Z,9.29
2023-05-17T05:09:49.195Z,8.57
2023-05-17T05:12:17.333Z,8.34
2023-05-17T05:14:44.554Z,8.84
2023-05-17T05:17:11.671Z,9.57
2023-05-17T05:19:40.881Z,8.79
2023-05-17T05:22:08.420Z,10.12
2023-05-17T05:24:37.319Z,9.11
2023-05-17T05:27:06.820Z,9.24
2023-05-17T05:29:34.281Z,8.17
2023-05-17T05:32:01.524Z,8.67
2023-05-17T05:34:29.679Z,7.88
2023-05-17T05:36:56.724Z,8.20
2023-05-17T05:39:23.962Z,7.81
2023-05-17T05:41:52.167Z,7.57
2023-05-17T05:44:19.645Z,8.78
2023-05-17T05:46:48.312Z,8.44
2023-05-17T05:49:15.600Z,9.38
2023-05-17T05:51:43.242Z,9.44
2023-05-17T05:54:10.869Z,8.78
2023-05-17T05:56:38.887Z,8.26
2023-05-17T05:59:07.978Z,7.50
2023-05-17T06:01:35.045Z,8.10
2023-05-17T06:04:02.112Z,8.89
2023-05-17T06:06:29.313Z,8.79
2023-05-17T06:08:58.152Z,9.02
2023-05-17T06:11:26.555Z,8.72
2023-05-17T06:13:53.611Z,8.31
2023-05-17T06:16:20.694Z,8.64
2023-05-17T06:18:50.369Z,9.34
2023-05-17T06:21:18.732Z,9.64
2023-05-17T06:23:45.906Z,9.27
2023-05-17T06:26:12.992Z,8.31
2023-05-17T06:28:40.048Z,9.23
2023-05-17T06:31:07.327Z,8.88
2023-05-17T06:33:34.533Z,8.76
2023-05-17T06:38:33.569Z,9.22
2023-05-17T06:41:00.656Z,9.72
2023-05-17T06:43:28.006Z,9.93
2023-05-17T06:45:55.070Z,8.85
2023-05-17T06:48:22.189Z,9.28
2023-05-17T06:50:49.317Z,8.69
2023-05-17T06:53:16.538Z,8.68
2023-05-17T06:55:43.652Z,9.49
2023-05-17T06:58:10.788Z,9.79
2023-05-17T07:00:38.086Z,10.16
2023-05-17T07:03:05.222Z,9.69
2023-05-17T07:05:32.630Z,9.52
2023-05-17T07:08:00.065Z,9.73
2023-05-17T07:10:27.221Z,9.39
2023-05-17T07:12:54.327Z,9.54
2023-05-17T07:15:21.404Z,9.75
2023-05-17T07:17:48.481Z,9.29
2023-05-17T07:20:15.556Z,9.08
2023-05-17T07:22:42.734Z,8.94
2023-05-17T07:25:10.499Z,9.22
2023-05-17T07:27:37.663Z,10.32
2023-05-17T07:30:05.477Z,10.67
2023-05-17T07:32:33.194Z,10.70
2023-05-17T07:35:02.285Z,10.56
2023-05-17T07:37:29.357Z,10.27
2023-05-17T07:39:56.454Z,10.42
2023-05-17T07:42:23.502Z,9.88
2023-05-17T07:44:50.661Z,10.31
2023-05-17T07:47:17.949Z,10.20
2023-05-17T07:49:45.076Z,10.34
2023-05-17T07:52:12.130Z,11.15
2023-05-17T07:54:39.178Z,11.03
2023-05-17T07:57:06.234Z,11.24
2023-05-17T07:59:36.316Z,10.83
2023-05-17T08:02:03.321Z,9.98
2023-05-17T08:04:30.424Z,10.24
2023-05-17T08:06:57.851Z,10.69
2023-05-17T08:09:24.906Z,11.21
2023-05-17T08:11:51.977Z,11.27
2023-05-17T08:14:21.223Z,11.65
2023-05-17T08:16:48.404Z,11.60
2023-05-17T08:19:16.756Z,12.21
2023-05-17T08:21:44.011Z,12.33
2023-05-17T08:24:11.747Z,11.18
2023-05-17T08:26:38.787Z,11.57
2023-05-17T08:29:05.959Z,11.24
2023-05-17T08:31:33.241Z,11.31
2023-05-17T08:34:00.452Z,11.79
2023-05-17T08:36:28.537Z,10.85
2023-05-17T08:38:55.612Z,11.09
2023-05-17T08:41:22.935Z,11.62
2023-05-17T08:43:51.144Z,12.26
2023-05-17T08:46:21.842Z,12.82
2023-05-17T08:48:52.341Z,12.24
2023-05-17T08:51:22.615Z,12.93
2023-05-17T08:53:50.865Z,13.37
2023-05-17T08:56:21.646Z,13.07
2023-05-17T09:01:19.288Z,12.54
2023-05-17T09:03:48.989Z,11.79
2023-05-17T09:06:23.245Z,12.38
2023-05-17T09:08:52.975Z,11.46
2023-05-17T09:11:30.168Z,12.22
2023-05-17T09:14:01.119Z,12.61
2023-05-17T09:16:28.626Z,13.88
2023-05-17T09:18:56.809Z,13.56
2023-05-17T09:21:24.609Z,13.69
2023-05-17T09:24:04.818Z,14.14
2023-05-17T09:26:46.033Z,12.85
2023-05-17T09:29:15.344Z,13.51
2023-05-17T09:31:42.946Z,13.22
2023-05-17T09:34:10.331Z,13.45
2023-05-17T09:36:38.195Z,13.09
2023-05-17T09:39:06.777Z,12.99
2023-05-17T09:41:40.738Z,11.64
2023-05-17T09:44:11.789Z,11.96
2023-05-17T09:46:48.866Z,12.01
2023-05-17T09:49:16.893Z,11.78
2023-05-17T09:51:48.202Z,11.92
2023-05-17T09:54:15.206Z,13.15
2023-05-17T09:56:42.262Z,13.95
2023-05-17T09:59:16.234Z,12.40
2023-05-17T10:01:45.462Z,13.00
2023-05-17T10:04:13.443Z,13.81
2023-05-17T10:09:13.411Z,12.75
2023-05-17T10:11:40.777Z,12.71
2023-05-17T10:14:23.425Z,13.06
2023-05-17T10:16:51.256Z,13.40
2023-05-17T10:19:20.280Z,13.19
2023-05-17T10:21:51.237Z,12.52
2023-05-17T10:24:18.143Z,12.46
2023-05-17T10:26:45.190Z,13.26
2023-05-17T10:29:12.283Z,12.56
2023-05-17T10:31:39.380Z,13.00
2023-05-17T10:34:09.330Z,13.59
2023-05-17T10:36:36.574Z,14.44
2023-05-17T10:39:03.756Z,14.04
2023-05-17T10:41:32.579Z,13.49
2023-05-17T10:43:59.840Z,13.59
2023-05-17T10:46:26.957Z,12.66
2023-05-17T10:48:55.358Z,12.82
2023-05-17T10:51:31.366Z,13.75
2023-05-17T10:54:05.259Z,13.91
2023-05-17T10:56:32.539Z,14.78
2023-05-17T10:59:24.522Z,14.49
2023-05-17T11:02:04.916Z,14.91
2023-05-17T11:04:38.681Z,13.04
2023-05-17T11:07:19.131Z,13.07
2023-05-17T11:09:47.117Z,12.84
2023-05-17T11:12:14.430Z,13.05
2023-05-17T11:14:48.848Z,13.76
2023-05-17T11:17:20.252Z,13.84
2023-05-17T11:19:51.156Z,13.11
2023-05-17T11:22:18.488Z,13.49
2023-05-17T11:24:45.681Z,14.43
2023-05-17T11:27:13.852Z,14.56
2023-05-17T11:29:42.442Z,14.23
2023-05-17T11:32:10.535Z,13.09
2023-05-17T11:34:38.193Z,14.43
2023-05-17T11:37:06.279Z,15.02
2023-05-17T11:39:33.335Z,15.09
2023-05-17T11:42:00.356Z,14.82
2023-05-17T11:44:31.693Z,14.52
2023-05-17T11:47:05.963Z,14.19
2023-05-17T11:49:37.153Z,13.31
2023-05-17T11:52:05.722Z,13.45
2023-05-17T11:54:32.824Z,12.67
2023-05-17T11:57:00.401Z,13.51
2023-05-17T11:59:27.505Z,13.19
2023-05-17T12:01:55.088Z,13.69
2023-05-17T12:04:25.930Z,13.84
2023-05-17T12:06:55.521Z,13.35
2023-05-17T12:09:22.786Z,12.74
2023-05-17T12:11:50.168Z,13.07
2023-05-17T12:14:21.897Z,12.77
2023-05-17T12:16:53.857Z,13.12
2023-05-17T12:19:22.068Z,13.48
2023-05-17T12:21:52.064Z,13.43
2023-05-17T12:24:19.246Z,12.67
2023-05-17T12:26:47.186Z,12.91
2023-05-17T12:29:15.088Z,12.81
2023-05-17T12:31:43.576Z,13.44
2023-05-17T12:34:12.954Z,14.23
2023-05-17T12:36:40.558Z,13.43
2023-05-17T12:39:09.963Z,13.48
2023-05-17T12:41:38.614Z,13.60
2023-05-17T12:46:39.539Z,15.08
2023-05-17T12:49:08.493Z,15.84
2023-05-17T12:51:45.007Z,15.95
2023-05-17T12:54:30.346Z,15.04
2023-05-17T12:56:57.550Z,14.21
2023-05-17T12:59:29.301Z,13.72
2023-05-17T13:01:57.010Z,13.47
2023-05-17T13:04:32.088Z,13.83
2023-05-17T13:07:03.965Z,14.08
2023-05-17T13:09:32.248Z,13.55
2023-05-17T13:12:05.900Z,12.84
2023-05-17T13:14:33.367Z,13.49
2023-05-17T13:17:01.048Z,13.31
2023-05-17T13:19:28.270Z,13.51
2023-05-17T13:21:55.497Z,13.49
2023-05-17T13:24:22.502Z,13.23
2023-05-17T13:26:49.514Z,13.25
2023-05-17T13:29:17.565Z,13.09
2023-05-17T13:31:47.282Z,14.25
2023-05-17T13:34:14.271Z,13.79
2023-05-17T13:36:42.077Z,13.35
2023-05-17T13:39:09.235Z,12.87
2023-05-17T13:41:36.268Z,13.50
2023-05-17T13:44:03.364Z,13.43
2023-05-17T13:46:31.102Z,12.81
2023-05-17T13:48:58.339Z,13.32
2023-05-17T13:51:25.616Z,13.56
2023-05-17T13:53:52.649Z,13.86
2023-05-17T13:56:19.752Z,14.80
2023-05-17T13:58:46.831Z,14.44
2023-05-17T14:01:13.939Z,13.73
2023-05-17T14:03:41.065Z,12.88
2023-05-17T14:06:08.253Z,13.47
2023-05-17T14:08:35.393Z,13.39
2023-05-17T14:11:02.465Z,13.18
2023-05-17T14:13:29.533Z,14.14
2023-05-17T14:15:56.622Z,14.45
2023-05-17T14:18:23.847Z,14.25
2023-05-17T14:20:51.574Z,13.99
2023-05-17T14:23:20.178Z,14.47
2023-05-17T14:25:49.175Z,14.34
2023-05-17T14:28:19.245Z,14.57
2023-05-17T14:30:47.559Z,14.07
2023-05-17T14:33:14.787Z,13.88
2023-05-17T14:35:42.001Z,13.48
2023-05-17T14:38:09.012Z,14.23
2023-05-17T14:40:36.282Z,14.32
2023-05-17T14:43:03.297Z,13.75
2023-05-17T14:45:30.343Z,13.42
2023-05-17T14:47:57.568Z,13.04
2023-05-17T14:50:24.595Z,13.84
2023-05-17T14:52:51.702Z,13.60
2023-05-17T14:55:19.394Z,12.78
2023-05-17T14:57:46.441Z,13.15
2023-05-17T15:00:13.746Z,12.71
2023-05-17T15:02:40.835Z,12.32
2023-05-17T15:05:08.379Z,12.69
2023-05-17T15:07:35.479Z,12.52
2023-05-17T15:10:06.656Z,12.12
2023-05-17T15:12:33.693Z,12.11
2023-05-17T15:15:00.800Z,12.04
2023-05-17T15:17:28.135Z,11.76
2023-05-17T15:19:55.389Z,12.39
2023-05-17T15:22:22.812Z,11.89
2023-05-17T15:24:50.211Z,12.02
2023-05-17T15:27:17.557Z,11.87
2023-05-17T15:29:44.681Z,12.02
2023-05-17T15:32:11.798Z,11.90
2023-05-17T15:34:38.809Z,12.19
2023-05-17T15:37:06.089Z,12.16
2023-05-17T15:39:33.105Z,11.98
2023-05-17T15:42:00.177Z,12.18
2023-05-17T15:44:27.244Z,12.10
2023-05-17T15:46:54.413Z,12.26
2023-05-17T15:49:21.557Z,12.07
2023-05-17T15:51:48.637Z,12.32
2023-05-17T15:54:15.732Z,12.52
2023-05-17T15:56:42.816Z,12.16
2023-05-17T15:59:09.890Z,12.09
2023-05-17T16:01:36.935Z,11.95
2023-05-17T16:04:04.038Z,11.66
2023-05-17T16:06:36.015Z,12.20
2023-05-17T16:09:03.207Z,11.83
2023-05-17T16:11:30.186Z,11.45
2023-05-17T16:13:57.299Z,11.29
2023-05-17T16:16:24.293Z,11.55
2023-05-17T16:18:51.380Z,11.26
2023-05-17T16:21:18.705Z,11.40
2023-05-17T16:23:46.548Z,12.51
2023-05-17T16:26:13.692Z,11.72
2023-05-17T16:28:40.752Z,11.53
2023-05-17T16:31:07.838Z,11.18
2023-05-17T16:33:35.252Z,11.49
2023-05-17T16:36:04.626Z,11.72
2023-05-17T16:38:31.840Z,12.46
2023-05-17T16:41:03.289Z,11.50
2023-05-17T16:43:31.022Z,11.28
2023-05-17T16:45:58.077Z,11.03
2023-05-17T16:48:25.145Z,11.26
2023-05-17T16:50:52.298Z,11.37
2023-05-17T16:53:19.400Z,11.50
2023-05-17T16:55:46.469Z,11.23
2023-05-17T16:58:13.585Z,11.19
2023-05-17T17:00:40.633Z,11.35
2023-05-17T17:03:09.819Z,11.07
2023-05-17T17:05:37.288Z,11.23
2023-05-17T17:08:04.386Z,11.28
2023-05-17T17:10:31.740Z,11.06
2023-05-17T17:12:58.969Z,11.43
2023-05-17T17:15:25.976Z,11.44
2023-05-17T17:17:53.132Z,11.62
2023-05-17T17:20:20.792Z,11.14
2023-05-17T17:22:47.859Z,11.26
2023-05-17T17:25:14.964Z,11.48
2023-05-17T17:27:42.264Z,11.21
2023-05-17T17:30:09.670Z,11.70
2023-05-17T17:32:36.853Z,11.41
2023-05-17T17:35:04.150Z,11.63
2023-05-17T17:37:31.219Z,11.07
2023-05-17T17:39:58.305Z,11.23
2023-05-17T17:42:25.761Z,11.22
2023-05-17T17:44:54.020Z,11.15
2023-05-17T17:47:21.184Z,11.36
2023-05-17T17:49:48.290Z,11.37
2023-05-17T17:52:15.331Z,11.54
2023-05-17T17:54:44.026Z,11.00
2023-05-17T17:57:13.060Z,11.11
2023-05-17T17:59:40.202Z,10.88
2023-05-17T18:02:07.548Z,10.98
2023-05-17T18:04:34.844Z,10.77
2023-05-17T18:07:02.769Z,10.93
2023-05-17T18:09:29.759Z,11.11
2023-05-17T18:11:57.230Z,10.88
2023-05-17T18:14:24.272Z,11.13
2023-05-17T18:16:51.420Z,11.08
2023-05-17T18:19:18.605Z,11.06
2023-05-17T18:21:45.883Z,11.08
2023-05-17T18:24:12.904Z,11.12
2023-05-17T18:26:39.942Z,11.21
2023-05-17T18:29:06.945Z,11.28
2023-05-17T18:31:34.103Z,11.70
2023-05-17T18:34:01.176Z,11.81
2023-05-17T18:36:28.177Z,11.85
2023-05-17T18:38:58.727Z,12.29
2023-05-17T18:41:26.219Z,12.14
2023-05-17T18:43:53.328Z,12.52
2023-05-17T18:46:20.631Z,12.90
2023-05-17T18:48:47.752Z,12.98
2023-05-17T18:51:15.848Z,13.42
2023-05-17T18:53:43.032Z,13.53
2023-05-17T18:56:10.217Z,14.07
2023-05-17T18:58:37.485Z,14.39
2023-05-17T19:01:04.694Z,13.96
2023-05-17T19:03:32.019Z,14.56
2023-05-17T19:05:59.180Z,14.69
2023-05-17T19:08:26.298Z,14.92
2023-05-17T19:10:53.418Z,15.05
2023-05-17T19:13:20.598Z,15.10
2023-05-17T19:15:48.512Z,15.02
2023-05-17T19:18:15.886Z,15.18
2023-05-17T19:20:43.103Z,15.28
2023-05-17T19:23:10.389Z,15.48
2023-05-17T19:25:37.528Z,15.68
2023-05-17T19:28:04.807Z,15.73
2023-05-17T19:30:33.007Z,15.54
2023-05-17T19:33:02.105Z,15.64
2023-05-17T19:35:29.526Z,15.57
2023-05-17T19:37:57.295Z,15.40
2023-05-17T19:40:24.871Z,15.09
2023-05-17T19:42:52.754Z,14.97
2023-05-17T19:45:20.213Z,14.85
2023-05-17T19:47:47.544Z,14.73
2023-05-17T19:50:15.574Z,14.65
2023-05-17T19:52:43.094Z,14.57
2023-05-17T19:55:11.732Z,14.55
2023-05-17T19:57:40.597Z,14.39
2023-05-17T20:00:10.972Z,14.23
2023-05-17T20:02:38.715Z,14.11
2023-05-17T20:05:07.102Z,14.12
2023-05-17T20:07:34.486Z,14.22
2023-05-17T20:10:02.134Z,14.31
2023-05-17T20:12:29.536Z,14.25
2023-05-17T20:14:56.731Z,14.24
2023-05-17T20:17:24.337Z,14.19
2023-05-17T20:19:51.609Z,14.19
2023-05-17T20:22:18.821Z,14.23
2023-05-17T20:24:46.147Z,14.28
2023-05-17T20:27:15.392Z,14.30
2023-05-17T20:29:42.627Z,14.19
2023-05-17T20:32:09.945Z,14.20
2023-05-17T20:34:37.383Z,14.20
2023-05-17T20:37:04.663Z,14.18
2023-05-17T20:39:31.909Z,14.10
2023-05-17T20:42:01.247Z,14.02
2023-05-17T20:44:28.800Z,14.03
2023-05-17T20:46:56.964Z,13.99
2023-05-17T20:49:24.199Z,13.93
2023-05-17T20:51:51.359Z,13.92
2023-05-17T20:54:18.538Z,13.79
2023-05-17T20:56:45.619Z,13.62
2023-05-17T20:59:12.630Z,13.51
2023-05-17T21:01:39.894Z,13.40
2023-05-17T21:04:07.063Z,13.39
2023-05-17T21:06:34.489Z,13.33
2023-05-17T21:09:02.789Z,13.31
2023-05-17T21:11:30.087Z,13.14
2023-05-17T21:14:00.286Z,12.95
2023-05-17T21:16:27.766Z,12.82
2023-05-17T21:18:54.902Z,12.77
2023-05-17T21:21:21.949Z,12.72
2023-05-17T21:23:49.179Z,12.65
2023-05-17T21:26:16.277Z,12.77
2023-05-17T21:28:43.371Z,12.74
2023-05-17T21:31:10.639Z,12.79
2023-05-17T21:33:37.744Z,12.77
2023-05-17T21:36:05.030Z,12.82
2023-05-17T21:38:32.161Z,12.87
2023-05-17T21:40:59.216Z,12.90
2023-05-17T21:43:26.290Z,12.83
2023-05-17T21:45:53.371Z,12.78
2023-05-17T21:48:20.493Z,12.77
2023-05-17T21:50:47.714Z,12.77
2023-05-17T21:53:14.870Z,12.63
2023-05-17T21:56:00.653Z,12.46
2023-05-17T21:58:29.173Z,12.41
2023-05-17T22:00:56.324Z,12.28
2023-05-17T22:03:23.643Z,12.24
2023-05-17T22:05:51.119Z,12.24
2023-05-17T22:08:18.266Z,12.25
2023-05-17T22:10:45.302Z,12.34
2023-05-17T22:13:12.631Z,12.35
2023-05-17T22:15:41.721Z,12.21
2023-05-17T22:18:09.098Z,12.09
2023-05-17T22:20:36.167Z,11.99
2023-05-17T22:23:03.301Z,11.95
2023-05-17T22:25:30.321Z,11.96
2023-05-17T22:27:57.491Z,11.97
2023-05-17T22:30:24.510Z,11.89
2023-05-17T22:32:54.830Z,11.81
2023-05-17T22:35:21.944Z,11.90
2023-05-17T22:37:51.843Z,11.83
2023-05-17T22:40:19.080Z,11.92
2023-05-17T22:42:47.286Z,11.98
2023-05-17T22:45:14.643Z,12.04
2023-05-17T22:47:46.608Z,12.04
2023-05-17T22:50:15.844Z,11.99
2023-05-17T22:52:43.401Z,11.94
2023-05-17T22:55:11.164Z,11.92
2023-05-17T22:57:38.445Z,11.88
2023-05-17T23:00:06.392Z,11.83
2023-05-17T23:02:33.454Z,11.80
2023-05-17T23:05:03.781Z,11.80
2023-05-17T23:07:37.222Z,11.77
2023-05-17T23:10:05.503Z,11.71
2023-05-17T23:12:33.499Z,11.60
2023-05-17T23:15:00.704Z,11.53
2023-05-17T23:17:32.665Z,11.40
2023-05-17T23:20:07.102Z,11.35
2023-05-17T23:22:34.446Z,11.37
2023-05-17T23:25:03.531Z,11.37
2023-05-17T23:27:30.573Z,11.29
2023-05-17T23:29:57.681Z,11.39
2023-05-17T23:32:24.753Z,11.34
2023-05-17T23:34:58.483Z,11.35
2023-05-17T23:37:25.720Z,11.25
2023-05-17T23:39:52.891Z,11.26
2023-05-17T23:42:20.443Z,11.30
2023-05-17T23:44:48.961Z,11.25
2023-05-17T23:47:16.074Z,11.27
2023-05-17T23:49:43.144Z,11.20
2023-05-17T23:52:11.249Z,11.18
2023-05-17T23:54:39.065Z,11.11
2023-05-17T23:57:06.654Z,11.13
2023-05-17T23:59:34.135Z,11.01
